Time;durP1;ratioP1;P1;durP2;ratioP2;P2;SDS_P1;SDS_P2;PMS_P1;PMS_P2;Temp;Humidity;BMP_temperature;BMP_pressure;BME280_temperature;BME280_humidity;BME280_pressure;Samples;Min_cycle;Max_cycle;Signal;HPM_P1;HPM_P2
2023/10/09 00:02:08;;;;;;;;;;;21.50;1.00;;;;;;4935765;29;20395;-59
2023/10/09 00:04:36;;;;;;;;;;;21.50;1.00;;;;;;4935818;29;19930;-59
2023/10/09 00:07:07;;;;;;;;;;;21.50;1.00;;;;;;4935857;29;19938;-59
2023/10/09 00:09:46;;;;;;;;;;;21.50;1.00;;;;;;4935532;29;19931;-58
2023/10/09 00:12:16;;;;;;;;;;;21.50;1.00;;;;;;5205943;23;19927;-59
2023/10/09 00:14:48;;;;;;;;;;;21.50;1.00;;;;;;4954346;28;19938;-59
2023/10/09 00:19:47;;;;;;;;;;;21.50;1.00;;;;;;4947248;28;20444;-59
2023/10/09 00:22:28;;;;;;;;;;;21.40;1.00;;;;;;4918299;29;19990;-59
2023/10/09 00:25:30;;;;;;;;;;;21.40;1.00;;;;;;4935443;29;19943;-59
2023/10/09 00:27:48;;;;;;;;;;;21.40;1.00;;;;;;4940587;29;19938;-59
2023/10/09 00:30:18;;;;;;;;;;;21.40;1.00;;;;;;4917704;29;20017;-59
2023/10/09 00:33:07;;;;;;;;;;;21.40;1.00;;;;;;4936588;29;19934;-59
2023/10/09 00:35:36;;;;;;;;;;;21.40;1.00;;;;;;4938743;29;19927;-59
2023/10/09 00:38:24;;;;;;;;;;;21.40;1.00;;;;;;4918520;29;19927;-57
2023/10/09 00:41:04;;;;;;;;;;;21.40;1.00;;;;;;4918103;29;19934;-59
2023/10/09 00:43:31;;;;;;;;;;;21.40;1.00;;;;;;5062496;23;19929;-59
2023/10/09 00:46:09;;;;;;;;;;;21.40;1.00;;;;;;4923179;29;19953;-59
2023/10/09 00:48:40;;;;;;;;;;;21.40;1.00;;;;;;4915136;29;20038;-58
2023/10/09 00:51:16;;;;;;;;;;;21.30;1.00;;;;;;4934174;29;20325;-59
2023/10/09 00:53:58;;;;;;;;;;;21.30;1.00;;;;;;4933785;29;20022;-59
2023/10/09 00:59:00;;;;;;;;;;;21.30;1.00;;;;;;4933778;29;19931;-59
2023/10/09 01:01:56;;;;;;;;;;;21.30;1.00;;;;;;4933738;29;19973;-59
2023/10/09 01:04:14;;;;;;;;;;;21.30;1.00;;;;;;4933501;29;19982;-59
2023/10/09 01:06:44;;;;;;;;;;;21.30;1.00;;;;;;4934032;29;20017;-59
2023/10/09 01:09:13;;;;;;;;;;;21.30;1.00;;;;;;4935068;29;19927;-59
2023/10/09 01:12:16;;;;;;;;;;;21.30;1.00;;;;;;4933631;29;19930;-59
2023/10/09 01:14:37;;;;;;;;;;;21.30;1.00;;;;;;4940238;28;20388;-59
2023/10/09 01:17:29;;;;;;;;;;;21.30;1.00;;;;;;4929340;29;19934;-59
2023/10/09 01:19:55;;;;;;;;;;;21.30;1.00;;;;;;4936621;29;19927;-59
2023/10/09 01:22:22;;;;;;;;;;;21.30;1.00;;;;;;4953755;29;19973;-59
2023/10/09 01:24:51;;;;;;;;;;;21.30;1.00;;;;;;4940270;29;19926;-59
2023/10/09 01:27:18;;;;;;;;;;;21.30;1.00;;;;;;4958413;29;20364;-59
2023/10/09 01:29:45;;;;;;;;;;;21.30;1.00;;;;;;4937744;29;19926;-57
2023/10/09 01:32:16;;;;;;;;;;;21.30;1.00;;;;;;4936886;29;19933;-57
2023/10/09 01:34:45;;;;;;;;;;;21.30;1.00;;;;;;4936721;29;19926;-56
2023/10/09 01:37:22;;;;;;;;;;;21.20;1.00;;;;;;4936866;29;20365;-59
2023/10/09 01:39:50;;;;;;;;;;;21.20;1.00;;;;;;4936599;29;19927;-59
2023/10/09 01:42:31;;;;;;;;;;;21.20;1.00;;;;;;4937991;29;19926;-59
2023/10/09 01:45:09;;;;;;;;;;;21.20;1.00;;;;;;4960337;23;19926;-58
2023/10/09 01:47:37;;;;;;;;;;;21.20;1.00;;;;;;4938543;29;20022;-58
2023/10/09 01:50:20;;;;;;;;;;;21.20;1.00;;;;;;4948091;29;20343;-57
2023/10/09 01:52:48;;;;;;;;;;;21.20;1.00;;;;;;4957606;29;19938;-57
2023/10/09 01:55:34;;;;;;;;;;;21.20;1.00;;;;;;4957347;29;19926;-58
2023/10/09 02:00:53;;;;;;;;;;;21.20;1.00;;;;;;4939814;29;20029;-56
2023/10/09 02:03:23;;;;;;;;;;;21.20;1.00;;;;;;4939926;29;19930;-58
2023/10/09 02:05:51;;;;;;;;;;;21.20;1.00;;;;;;4957153;29;19926;-58
2023/10/09 02:08:21;;;;;;;;;;;21.20;1.00;;;;;;4939945;29;19942;-54
2023/10/09 02:10:48;;;;;;;;;;;21.20;1.00;;;;;;4956852;29;19926;-58
2023/10/09 02:13:17;;;;;;;;;;;21.20;1.00;;;;;;4939850;29;20353;-56
2023/10/09 02:18:41;;;;;;;;;;;21.20;1.00;;;;;;4897331;29;19938;-57
2023/10/09 02:29:05;;;;;;;;;;;21.20;1.00;;;;;;4875511;29;19935;-58
2023/10/09 02:31:36;;;;;;;;;;;21.10;1.00;;;;;;4882650;29;19927;-56
2023/10/09 02:34:11;;;;;;;;;;;21.10;1.00;;;;;;4899599;29;19934;-58
2023/10/09 02:36:42;;;;;;;;;;;21.10;1.00;;;;;;4899868;29;19934;-59
2023/10/09 02:39:22;;;;;;;;;;;21.20;1.00;;;;;;4882547;29;19939;-59
2023/10/09 02:42:42;;;;;;;;;;;21.10;1.00;;;;;;4882358;29;19931;-57
2023/10/09 02:44:49;;;;;;;;;;;21.10;1.00;;;;;;4889736;29;20298;-58
2023/10/09 02:47:30;;;;;;;;;;;21.10;1.00;;;;;;4882809;29;19928;-55
2023/10/09 02:50:22;;;;;;;;;;;21.10;1.00;;;;;;5297343;23;19949;-57
2023/10/09 02:52:59;;;;;;;;;;;21.10;1.00;;;;;;4958374;28;20446;-57
2023/10/09 02:55:27;;;;;;;;;;;21.10;1.00;;;;;;4957914;28;20344;-56
2023/10/09 02:58:10;;;;;;;;;;;21.10;1.00;;;;;;4958174;28;19926;-56
2023/10/09 03:00:37;;;;;;;;;;;21.10;1.00;;;;;;4975376;28;19958;-56
2023/10/09 03:03:07;;;;;;;;;;;21.10;1.00;;;;;;4958082;28;19932;-55
2023/10/09 03:05:38;;;;;;;;;;;21.10;1.00;;;;;;4958071;28;19934;-59
2023/10/09 03:08:05;;;;;;;;;;;21.10;1.00;;;;;;4958079;28;19968;-57
2023/10/09 03:10:34;;;;;;;;;;;21.10;1.00;;;;;;4957847;28;19926;-59
2023/10/09 03:13:03;;;;;;;;;;;21.10;1.00;;;;;;4957967;28;20355;-56
2023/10/09 03:15:35;;;;;;;;;;;21.10;1.00;;;;;;4975249;28;20025;-58
2023/10/09 03:18:04;;;;;;;;;;;21.10;1.00;;;;;;4975086;28;20028;-55
2023/10/09 03:23:27;;;;;;;;;;;21.10;1.00;;;;;;5031985;23;20017;-56
2023/10/09 03:25:53;;;;;;;;;;;21.10;1.00;;;;;;4936473;29;20460;-57
2023/10/09 03:28:33;;;;;;;;;;;21.10;1.00;;;;;;4937044;29;19927;-57
2023/10/09 03:31:02;;;;;;;;;;;21.00;1.00;;;;;;4936101;29;19976;-57
2023/10/09 03:33:33;;;;;;;;;;;21.10;1.00;;;;;;4936504;29;20388;-58
2023/10/09 03:36:00;;;;;;;;;;;21.00;1.00;;;;;;4936455;29;19933;-56
2023/10/09 03:38:34;;;;;;;;;;;21.00;1.00;;;;;;4936466;29;19927;-56
2023/10/09 03:41:01;;;;;;;;;;;21.10;1.00;;;;;;4935975;29;19927;-58
2023/10/09 03:43:32;;;;;;;;;;;21.00;1.00;;;;;;4936126;29;19949;-57
2023/10/09 03:45:59;;;;;;;;;;;21.00;1.00;;;;;;4936265;29;19954;-58
2023/10/09 03:48:31;;;;;;;;;;;21.00;1.00;;;;;;4936393;29;19930;-58
2023/10/09 03:51:08;;;;;;;;;;;21.00;1.00;;;;;;4936134;29;20018;-58
2023/10/09 03:53:36;;;;;;;;;;;21.00;1.00;;;;;;5088082;23;19925;-57
2023/10/09 03:56:11;;;;;;;;;;;21.00;1.00;;;;;;4917650;29;19927;-57
2023/10/09 03:58:42;;;;;;;;;;;21.00;1.00;;;;;;4917063;29;19934;-57
2023/10/09 04:01:37;;;;;;;;;;;21.00;1.00;;;;;;4916660;29;19927;-57
2023/10/09 04:04:00;;;;;;;;;;;21.00;1.00;;;;;;4916802;29;19927;-57
2023/10/09 04:06:32;;;;;;;;;;;21.00;1.00;;;;;;4916205;29;20297;-57
2023/10/09 04:09:00;;;;;;;;;;;21.00;1.00;;;;;;4916458;29;19978;-57
2023/10/09 04:11:27;;;;;;;;;;;21.00;1.00;;;;;;4916587;29;20377;-57
2023/10/09 04:13:54;;;;;;;;;;;21.00;1.00;;;;;;4912838;29;20356;-56
2023/10/09 04:18:57;;;;;;;;;;;21.00;1.00;;;;;;4936206;29;19933;-56
2023/10/09 04:21:34;;;;;;;;;;;21.00;1.00;;;;;;4925444;29;19927;-55
2023/10/09 04:24:09;;;;;;;;;;;21.00;1.00;;;;;;5030350;23;19915;-55
2023/10/09 04:26:37;;;;;;;;;;;21.00;1.00;;;;;;4928256;29;19926;-56
2023/10/09 04:29:04;;;;;;;;;;;21.00;1.00;;;;;;4935002;29;19934;-56
2023/10/09 04:31:37;;;;;;;;;;;21.00;1.00;;;;;;4908876;29;19938;-57
2023/10/09 04:34:23;;;;;;;;;;;21.00;1.00;;;;;;4916613;29;19966;-58
2023/10/09 04:36:51;;;;;;;;;;;21.00;1.00;;;;;;4920374;29;19938;-58
2023/10/09 04:47:49;;;;;;;;;;;21.00;1.00;;;;;;4916369;29;20326;-55
2023/10/09 04:50:36;;;;;;;;;;;21.00;1.00;;;;;;4916074;29;19934;-58
2023/10/09 04:56:04;;;;;;;;;;;21.00;1.00;;;;;;5030134;23;19933;-58
2023/10/09 04:58:33;;;;;;;;;;;21.00;1.00;;;;;;4934799;29;19933;-58
2023/10/09 05:03:39;;;;;;;;;;;21.00;1.00;;;;;;4952232;29;19927;-57
2023/10/09 05:06:20;;;;;;;;;;;21.00;1.00;;;;;;4954098;29;20404;-57
2023/10/09 05:08:48;;;;;;;;;;;21.00;1.00;;;;;;4953977;29;20404;-58
2023/10/09 05:11:34;;;;;;;;;;;20.90;1.00;;;;;;4953791;29;20316;-59
2023/10/09 05:14:13;;;;;;;;;;;20.90;1.00;;;;;;4954115;29;19926;-58
2023/10/09 05:16:55;;;;;;;;;;;21.00;1.00;;;;;;4954893;28;19933;-57
2023/10/09 05:22:17;;;;;;;;;;;20.90;1.00;;;;;;4957755;29;20303;-58
2023/10/09 05:24:45;;;;;;;;;;;21.00;1.00;;;;;;4958241;29;20061;-59
2023/10/09 05:27:18;;;;;;;;;;;20.90;1.00;;;;;;4957991;29;20273;-58
2023/10/09 05:29:59;;;;;;;;;;;20.90;1.00;;;;;;4957821;29;20033;-58
2023/10/09 05:32:35;;;;;;;;;;;20.90;1.00;;;;;;4946061;29;20489;-56
2023/10/09 05:37:32;;;;;;;;;;;20.90;1.00;;;;;;4938486;29;19930;-56
2023/10/09 05:46:07;;;;;;;;;;;20.90;1.00;;;;;;4938368;29;19930;-57
2023/10/09 05:48:06;;;;;;;;;;;20.90;1.00;;;;;;4938376;29;19969;-58
2023/10/09 06:01:06;;;;;;;;;;;20.90;1.00;;;;;;5059370;23;19935;-59
2023/10/09 06:04:17;;;;;;;;;;;20.90;1.00;;;;;;4900213;29;19983;-57
2023/10/09 06:06:45;;;;;;;;;;;20.90;1.00;;;;;;4900143;29;19932;-59
2023/10/09 06:11:43;;;;;;;;;;;20.90;1.00;;;;;;4899933;29;19931;-60
2023/10/09 06:24:19;;;;;;;;;;;20.90;1.00;;;;;;4899692;29;19927;-57
2023/10/09 06:35:21;;;;;;;;;;;20.90;1.00;;;;;;4937552;29;19927;-58
2023/10/09 06:45:54;;;;;;;;;;;20.90;1.00;;;;;;4937554;29;20296;-57
2023/10/09 06:51:12;;;;;;;;;;;20.90;1.00;;;;;;4929939;29;20401;-58
2023/10/09 06:59:15;;;;;;;;;;;20.90;1.00;;;;;;4963930;23;19930;-59
2023/10/09 07:01:42;;;;;;;;;;;20.90;1.00;;;;;;4910007;29;19938;-59
2023/10/09 07:04:19;;;;;;;;;;;20.90;1.00;;;;;;4917903;29;19931;-59
2023/10/09 07:06:56;;;;;;;;;;;20.90;1.00;;;;;;4917896;29;19938;-58
2023/10/09 07:09:23;;;;;;;;;;;20.90;1.00;;;;;;4917854;29;20466;-58
2023/10/09 07:17:04;;;;;;;;;;;20.90;1.00;;;;;;4917814;29;19927;-59
2023/10/09 07:22:04;;;;;;;;;;;20.90;1.00;;;;;;4917377;29;20448;-58
2023/10/09 07:24:43;;;;;;;;;;;20.90;1.00;;;;;;4917520;29;19974;-58
2023/10/09 07:27:12;;;;;;;;;;;20.90;1.00;;;;;;4917797;29;20222;-57
2023/10/09 07:29:49;;;;;;;;;;;20.90;1.00;;;;;;4997670;23;19927;-57
2023/10/09 07:32:22;;;;;;;;;;;20.90;1.00;;;;;;4916090;29;19950;-57
2023/10/09 07:34:57;;;;;;;;;;;20.90;1.00;;;;;;4917549;29;19931;-57
2023/10/09 07:37:30;;;;;;;;;;;20.90;1.00;;;;;;4917352;29;19927;-59
2023/10/09 07:39:57;;;;;;;;;;;20.90;1.00;;;;;;4916931;29;19935;-57
2023/10/09 07:48:05;;;;;;;;;;;20.90;1.00;;;;;;4917524;29;19934;-59
2023/10/09 07:50:48;;;;;;;;;;;20.90;1.00;;;;;;4916698;29;20441;-57
2023/10/09 07:53:17;;;;;;;;;;;20.90;1.00;;;;;;4917121;29;19975;-58
2023/10/09 07:55:53;;;;;;;;;;;20.90;1.00;;;;;;4917336;29;19935;-58
2023/10/09 07:58:27;;;;;;;;;;;20.90;1.00;;;;;;4917053;29;19927;-57
2023/10/09 08:03:45;;;;;;;;;;;20.90;1.00;;;;;;5058417;23;19933;-57
2023/10/09 08:09:46;;;;;;;;;;;20.90;1.00;;;;;;4912772;29;19935;-57
2023/10/09 08:15:20;;;;;;;;;;;20.90;1.00;;;;;;4916884;29;19959;-58
2023/10/09 08:18:03;;;;;;;;;;;20.90;1.00;;;;;;4935680;29;19927;-58
2023/10/09 08:21:19;;;;;;;;;;;20.90;1.00;;;;;;4935388;29;19927;-57
2023/10/09 08:23:33;;;;;;;;;;;20.90;1.00;;;;;;4935401;29;19935;-56
2023/10/09 08:26:12;;;;;;;;;;;20.90;1.00;;;;;;4935608;29;19933;-57
2023/10/09 08:28:48;;;;;;;;;;;20.90;1.00;;;;;;4935535;29;20013;-58
2023/10/09 08:31:34;;;;;;;;;;;20.90;1.00;;;;;;4935201;29;19985;-57
2023/10/09 08:34:01;;;;;;;;;;;20.90;1.00;;;;;;5244109;23;19991;-58
2023/10/09 08:36:36;;;;;;;;;;;20.90;1.00;;;;;;4954466;29;19926;-59
2023/10/09 08:39:25;;;;;;;;;;;20.90;1.00;;;;;;4953973;29;19927;-59
2023/10/09 08:41:52;;;;;;;;;;;20.90;1.00;;;;;;4954263;29;20131;-59
2023/10/09 08:44:22;;;;;;;;;;;20.90;1.00;;;;;;4954349;29;20214;-58
2023/10/09 08:46:50;;;;;;;;;;;20.90;1.00;;;;;;4954303;29;19927;-59
2023/10/09 08:49:17;;;;;;;;;;;20.90;1.00;;;;;;4946390;29;20378;-57
2023/10/09 08:51:46;;;;;;;;;;;20.90;1.00;;;;;;4926621;29;19931;-59
2023/10/09 08:54:14;;;;;;;;;;;20.90;1.00;;;;;;4935189;29;20004;-59
2023/10/09 08:56:51;;;;;;;;;;;20.90;1.00;;;;;;4934919;29;19962;-59
2023/10/09 08:59:18;;;;;;;;;;;20.90;1.00;;;;;;4934951;29;19954;-58
2023/10/09 09:01:49;;;;;;;;;;;20.80;1.00;;;;;;4926211;29;19927;-57
2023/10/09 09:04:36;;;;;;;;;;;20.90;1.00;;;;;;4934890;29;20049;-59
2023/10/09 09:07:03;;;;;;;;;;;20.90;1.00;;;;;;5428053;23;20497;-58
2023/10/09 09:09:32;;;;;;;;;;;20.90;1.00;;;;;;4953761;28;20292;-55
2023/10/09 09:11:59;;;;;;;;;;;20.90;1.00;;;;;;4953738;29;19958;-58
2023/10/09 09:14:37;;;;;;;;;;;20.90;1.00;;;;;;4954047;29;19958;-56
2023/10/09 09:17:05;;;;;;;;;;;20.90;1.00;;;;;;4953841;29;19982;-56
2023/10/09 09:19:32;;;;;;;;;;;20.80;1.00;;;;;;4953784;28;20427;-58
2023/10/09 09:22:00;;;;;;;;;;;20.80;1.00;;;;;;4953708;29;20397;-58
2023/10/09 09:24:30;;;;;;;;;;;20.80;1.00;;;;;;4937920;29;19998;-58
2023/10/09 09:27:09;;;;;;;;;;;20.90;1.00;;;;;;4953842;29;19926;-57
2023/10/09 09:29:37;;;;;;;;;;;20.90;1.00;;;;;;4953980;28;20361;-56
2023/10/09 09:32:20;;;;;;;;;;;20.80;1.00;;;;;;4940246;29;20353;-58
2023/10/09 09:34:54;;;;;;;;;;;20.80;1.00;;;;;;4934763;29;19974;-58
2023/10/09 09:37:28;;;;;;;;;;;20.90;1.00;;;;;;4935085;29;20305;-58
2023/10/09 09:40:00;;;;;;;;;;;20.90;1.00;;;;;;5179688;23;20013;-57
2023/10/09 09:42:31;;;;;;;;;;;20.80;1.00;;;;;;4934611;29;19949;-56
2023/10/09 09:45:02;;;;;;;;;;;20.80;1.00;;;;;;4934677;29;19931;-57
2023/10/09 09:47:29;;;;;;;;;;;20.80;1.00;;;;;;4934548;29;20017;-58
2023/10/09 09:49:59;;;;;;;;;;;20.90;1.00;;;;;;4934557;29;19927;-58
2023/10/09 09:52:38;;;;;;;;;;;20.80;1.00;;;;;;4934555;29;19954;-58
2023/10/09 09:55:18;;;;;;;;;;;20.80;1.00;;;;;;4934427;29;19934;-56
2023/10/09 09:57:45;;;;;;;;;;;20.80;1.00;;;;;;4934596;29;20457;-55
2023/10/09 10:00:28;;;;;;;;;;;20.80;1.00;;;;;;4934367;29;20393;-58
2023/10/09 10:02:58;;;;;;;;;;;20.80;1.00;;;;;;4934611;29;20409;-58
2023/10/09 10:05:29;;;;;;;;;;;20.90;1.00;;;;;;4937278;29;19931;-56
2023/10/09 10:08:00;;;;;;;;;;;20.90;1.00;;;;;;4938076;29;19927;-58
2023/10/09 10:13:49;;;;;;;;;;;20.90;1.00;;;;;;4970110;23;19934;-54
2023/10/09 10:19:07;;;;;;;;;;;20.80;1.00;;;;;;4956971;29;19966;-57
2023/10/09 10:21:48;;;;;;;;;;;20.90;1.00;;;;;;4937377;29;19972;-57
2023/10/09 10:24:30;;;;;;;;;;;20.90;1.00;;;;;;4937802;29;19926;-57
2023/10/09 10:27:09;;;;;;;;;;;20.90;1.00;;;;;;4937667;29;19958;-58
2023/10/09 10:29:38;;;;;;;;;;;20.80;1.00;;;;;;4937463;29;19931;-56
2023/10/09 10:32:08;;;;;;;;;;;20.80;1.00;;;;;;4937262;29;20337;-57
2023/10/09 10:34:55;;;;;;;;;;;20.90;1.00;;;;;;4937654;29;19972;-56
2023/10/09 10:38:00;;;;;;;;;;;20.90;1.00;;;;;;4937447;29;19926;-56
2023/10/09 10:43:34;;;;;;;;;;;20.90;1.00;;;;;;4940719;23;20308;-58
2023/10/09 10:46:04;;;;;;;;;;;20.90;1.00;;;;;;4937296;29;19927;-57
2023/10/09 10:48:40;;;;;;;;;;;20.90;1.00;;;;;;4937165;29;20010;-55
2023/10/09 10:51:11;;;;;;;;;;;20.90;1.00;;;;;;4937016;29;20033;-58
2023/10/09 10:53:49;;;;;;;;;;;20.90;1.00;;;;;;4937209;29;20464;-56
2023/10/09 10:59:11;;;;;;;;;;;20.90;1.00;;;;;;4936932;29;20017;-58
2023/10/09 11:02:13;;;;;;;;;;;20.90;1.00;;;;;;4936577;29;19930;-57
2023/10/09 11:04:45;;;;;;;;;;;20.90;1.00;;;;;;4936827;29;19970;-55
2023/10/09 11:15:57;;;;;;;;;;;20.90;1.00;;;;;;5086509;23;19926;-58
2023/10/09 11:18:27;;;;;;;;;;;20.90;1.00;;;;;;4955924;29;19933;-57
2023/10/09 11:31:59;;;;;;;;;;;20.90;1.00;;;;;;4955558;29;19946;-57
2023/10/09 11:34:31;;;;;;;;;;;20.90;1.00;;;;;;4955762;29;20055;-58
2023/10/09 11:37:11;;;;;;;;;;;20.90;1.00;;;;;;4955565;29;19950;-56
2023/10/09 11:39:50;;;;;;;;;;;20.90;1.00;;;;;;4955399;28;20456;-57
2023/10/09 11:42:48;;;;;;;;;;;20.90;1.00;;;;;;4955366;29;19965;-58
2023/10/09 11:48:33;;;;;;;;;;;20.90;1.00;;;;;;5461181;23;20037;-58
2023/10/09 11:53:39;;;;;;;;;;;20.90;1.00;;;;;;4917078;29;19927;-55
2023/10/09 11:56:09;;;;;;;;;;;20.90;1.00;;;;;;4917121;29;19990;-58
2023/10/09 11:58:40;;;;;;;;;;;20.90;1.00;;;;;;4916989;29;19949;-56
2023/10/09 12:01:16;;;;;;;;;;;20.90;1.00;;;;;;4916707;29;19931;-58
2023/10/09 12:03:53;;;;;;;;;;;21.00;1.00;;;;;;4916955;29;19927;-55
2023/10/09 12:06:23;;;;;;;;;;;21.00;1.00;;;;;;4916961;29;19977;-57
2023/10/09 12:08:50;;;;;;;;;;;21.00;1.00;;;;;;4916680;29;19931;-58
2023/10/09 12:11:28;;;;;;;;;;;21.00;1.00;;;;;;4916610;29;20293;-58
2023/10/09 12:14:00;;;;;;;;;;;21.00;1.00;;;;;;4916692;29;20398;-58
2023/10/09 12:16:32;;;;;;;;;;;21.00;1.00;;;;;;4916629;29;19959;-57
2023/10/09 12:19:02;;;;;;;;;;;21.00;1.00;;;;;;5234392;23;20522;-55
2023/10/09 12:21:29;;;;;;;;;;;21.00;1.00;;;;;;4954347;29;19926;-58
2023/10/09 12:23:58;;;;;;;;;;;21.00;1.00;;;;;;4953395;29;20227;-54
2023/10/09 12:26:34;;;;;;;;;;;21.00;1.00;;;;;;4954043;28;19977;-57
2023/10/09 12:29:01;;;;;;;;;;;21.00;1.00;;;;;;4954413;29;20020;-54
2023/10/09 12:31:33;;;;;;;;;;;21.00;1.00;;;;;;4954556;29;19949;-55
2023/10/09 12:34:01;;;;;;;;;;;21.00;1.00;;;;;;4954506;29;20341;-54
2023/10/09 12:36:28;;;;;;;;;;;21.00;1.00;;;;;;4954469;29;19926;-57
2023/10/09 12:38:58;;;;;;;;;;;21.00;1.00;;;;;;4954458;29;20036;-57
2023/10/09 12:41:27;;;;;;;;;;;21.00;1.00;;;;;;4954093;29;19926;-57
2023/10/09 12:43:54;;;;;;;;;;;21.00;1.00;;;;;;4954349;29;20289;-54
2023/10/09 12:46:25;;;;;;;;;;;21.00;1.00;;;;;;4954139;29;19926;-56
2023/10/09 12:48:54;;;;;;;;;;;21.00;1.00;;;;;;4954403;29;20383;-55
2023/10/09 12:51:29;;;;;;;;;;;21.00;1.00;;;;;;5297604;23;20946;31
2023/10/09 12:53:57;;;;;;;;;;;21.00;1.00;;;;;;4915245;29;19927;-55
2023/10/09 12:56:32;;;;;;;;;;;21.00;1.00;;;;;;4916198;29;19989;-58
2023/10/09 12:59:00;;;;;;;;;;;21.00;1.00;;;;;;4914659;29;19928;-58
2023/10/09 13:01:42;;;;;;;;;;;21.00;1.00;;;;;;4897342;29;20347;-58
2023/10/09 13:04:17;;;;;;;;;;;21.00;1.00;;;;;;4908848;29;20297;-57
2023/10/09 13:06:44;;;;;;;;;;;21.10;1.00;;;;;;4916464;29;19934;-56
2023/10/09 13:09:11;;;;;;;;;;;21.10;1.00;;;;;;4916214;29;20323;-58
2023/10/09 13:11:40;;;;;;;;;;;21.00;1.00;;;;;;4915768;29;19970;-58
2023/10/09 13:14:22;;;;;;;;;;;21.10;1.00;;;;;;4916278;29;20300;-54
2023/10/09 13:16:52;;;;;;;;;;;21.10;1.00;;;;;;4916046;29;20304;-55
2023/10/09 13:19:24;;;;;;;;;;;21.10;1.00;;;;;;4916092;29;19950;-56
2023/10/09 13:21:50;;;;;;;;;;;21.10;1.00;;;;;;4915680;29;19950;-57
2023/10/09 13:24:17;;;;;;;;;;;21.10;1.00;;;;;;4910924;29;19927;-58
2023/10/09 13:26:46;;;;;;;;;;;21.10;1.00;;;;;;4897031;29;19928;-57
2023/10/09 13:29:13;;;;;;;;;;;21.10;1.00;;;;;;4897003;29;19927;-58
2023/10/09 13:31:47;;;;;;;;;;;21.10;1.00;;;;;;4896666;29;20018;-55
2023/10/09 13:34:17;;;;;;;;;;;21.10;1.00;;;;;;4897382;29;20021;-56
2023/10/09 13:36:53;;;;;;;;;;;21.10;1.00;;;;;;4896817;29;19934;-57
2023/10/09 13:39:26;;;;;;;;;;;21.10;1.00;;;;;;4900489;29;19971;-56
2023/10/09 13:41:57;;;;;;;;;;;21.10;1.00;;;;;;4900344;29;19928;-58
2023/10/09 13:44:28;;;;;;;;;;;21.10;1.00;;;;;;4900522;29;19932;-58
2023/10/09 13:47:01;;;;;;;;;;;21.10;1.00;;;;;;4900200;29;20014;-55
2023/10/09 13:49:30;;;;;;;;;;;21.10;1.00;;;;;;4912978;29;20051;-57
2023/10/09 13:51:58;;;;;;;;;;;21.20;1.00;;;;;;4910726;29;19935;-56
2023/10/09 13:54:38;;;;;;;;;;;21.20;1.00;;;;;;4916768;29;19942;-58
2023/10/09 13:57:07;;;;;;;;;;;21.20;1.00;;;;;;4911019;29;19942;-58
2023/10/09 13:59:42;;;;;;;;;;;21.20;1.00;;;;;;4918966;29;19934;-58
2023/10/09 14:02:09;;;;;;;;;;;21.20;1.00;;;;;;4907929;29;19931;-55
2023/10/09 14:04:37;;;;;;;;;;;21.20;1.00;;;;;;4906804;29;19931;-54
2023/10/09 14:07:07;;;;;;;;;;;21.20;1.00;;;;;;4919069;29;20010;-58
2023/10/09 14:09:45;;;;;;;;;;;21.20;1.00;;;;;;4918906;29;20403;-54
2023/10/09 14:12:14;;;;;;;;;;;21.20;1.00;;;;;;4918856;29;19978;-55
2023/10/09 14:14:48;;;;;;;;;;;21.20;1.00;;;;;;4902374;29;19928;-56
2023/10/09 14:17:18;;;;;;;;;;;21.20;1.00;;;;;;4918931;29;19966;-57
2023/10/09 14:19:47;;;;;;;;;;;21.20;1.00;;;;;;4918858;29;20431;-58
2023/10/09 14:22:18;;;;;;;;;;;21.20;1.00;;;;;;4918825;29;19935;-57
2023/10/09 14:24:45;;;;;;;;;;;21.20;1.00;;;;;;4989943;23;19939;31
2023/10/09 14:27:18;;;;;;;;;;;21.20;1.00;;;;;;4874898;29;20336;-57
2023/10/09 14:29:48;;;;;;;;;;;21.20;1.00;;;;;;4862179;29;20309;-57
2023/10/09 14:32:15;;;;;;;;;;;21.20;1.00;;;;;;4873768;29;19927;-58
2023/10/09 14:34:46;;;;;;;;;;;21.30;1.00;;;;;;4871196;29;19961;-57
2023/10/09 14:37:15;;;;;;;;;;;21.30;1.00;;;;;;4862860;29;20593;-57
2023/10/09 14:39:42;;;;;;;;;;;21.30;1.00;;;;;;4862757;29;19959;-55
2023/10/09 14:42:11;;;;;;;;;;;21.30;1.00;;;;;;4869652;29;19971;-55
2023/10/09 14:44:38;;;;;;;;;;;21.30;1.00;;;;;;4872106;29;19939;-53
2023/10/09 14:47:05;;;;;;;;;;;21.20;1.00;;;;;;4874311;29;20370;-56
2023/10/09 14:49:37;;;;;;;;;;;21.30;1.00;;;;;;4876700;29;19983;-56
2023/10/09 14:52:08;;;;;;;;;;;21.30;1.00;;;;;;4874255;29;19931;-55
2023/10/09 14:54:38;;;;;;;;;;;21.30;1.00;;;;;;4875636;29;19938;-57
2023/10/09 14:57:05;;;;;;;;;;;21.30;1.00;;;;;;5471381;23;19926;-55
2023/10/09 14:59:33;;;;;;;;;;;21.30;1.00;;;;;;4941480;29;20420;-56
2023/10/09 15:02:00;;;;;;;;;;;21.30;1.00;;;;;;4954498;29;19958;-56
2023/10/09 15:04:26;;;;;;;;;;;21.30;1.00;;;;;;4952232;29;19927;-58
2023/10/09 15:06:53;;;;;;;;;;;21.20;1.00;;;;;;4934258;29;19972;-57
2023/10/09 15:09:28;;;;;;;;;;;21.30;1.00;;;;;;4954575;29;19927;-58
2023/10/09 15:11:54;;;;;;;;;;;21.30;1.00;;;;;;4952134;29;19993;-56
2023/10/09 15:14:21;;;;;;;;;;;21.30;1.00;;;;;;4951260;29;19933;-58
2023/10/09 15:16:48;;;;;;;;;;;21.30;1.00;;;;;;4941020;29;19927;-58
2023/10/09 15:19:16;;;;;;;;;;;21.20;1.00;;;;;;4951776;29;19926;-58
2023/10/09 15:21:46;;;;;;;;;;;21.20;1.00;;;;;;4956062;29;19931;-56
2023/10/09 15:24:15;;;;;;;;;;;21.20;1.00;;;;;;4956164;29;19945;-57
2023/10/09 15:26:57;;;;;;;;;;;21.20;1.00;;;;;;4941407;29;19930;-57
2023/10/09 15:29:28;;;;;;;;;;;21.20;1.00;;;;;;5292585;23;19930;-58
2023/10/09 15:31:56;;;;;;;;;;;21.20;1.00;;;;;;4948736;29;20021;-57
2023/10/09 15:34:26;;;;;;;;;;;21.20;1.00;;;;;;4944683;29;19934;-57
2023/10/09 15:36:53;;;;;;;;;;;21.20;1.00;;;;;;4936459;29;19933;-58
2023/10/09 15:39:20;;;;;;;;;;;21.20;1.00;;;;;;4939074;29;20695;-58
2023/10/09 15:41:48;;;;;;;;;;;21.20;1.00;;;;;;4955795;29;20292;-58
2023/10/09 15:44:16;;;;;;;;;;;21.20;1.00;;;;;;4937354;29;20459;-57
2023/10/09 15:46:46;;;;;;;;;;;21.20;1.00;;;;;;4938501;29;19931;-59
2023/10/09 15:49:16;;;;;;;;;;;21.20;1.00;;;;;;4936636;29;19926;-56
2023/10/09 15:51:43;;;;;;;;;;;21.20;1.00;;;;;;4943767;29;20384;-57
2023/10/09 15:54:12;;;;;;;;;;;21.20;1.00;;;;;;4937397;29;19965;-58
2023/10/09 15:56:41;;;;;;;;;;;21.20;1.00;;;;;;4941261;29;20309;-58
2023/10/09 15:59:16;;;;;;;;;;;21.20;1.00;;;;;;4944828;29;19937;-58
2023/10/09 16:01:43;;;;;;;;;;;21.20;1.00;;;;;;5264263;23;19934;-58
2023/10/09 16:04:10;;;;;;;;;;;21.20;1.00;;;;;;4953096;29;19937;-58
2023/10/09 16:06:41;;;;;;;;;;;21.20;1.00;;;;;;4954283;29;19934;-57
2023/10/09 16:09:11;;;;;;;;;;;21.20;1.00;;;;;;4956587;28;19926;-59
2023/10/09 16:11:39;;;;;;;;;;;21.20;1.00;;;;;;4970090;28;19926;-58
2023/10/09 16:14:09;;;;;;;;;;;21.20;1.00;;;;;;4969873;28;20399;-58
2023/10/09 16:16:41;;;;;;;;;;;21.20;1.00;;;;;;4973681;28;20004;-57
2023/10/09 16:19:11;;;;;;;;;;;21.20;1.00;;;;;;4972258;28;19981;-58
2023/10/09 16:21:38;;;;;;;;;;;21.20;1.00;;;;;;4973611;28;19933;-56
2023/10/09 16:24:06;;;;;;;;;;;21.10;1.00;;;;;;4966401;28;19926;-57
2023/10/09 16:26:39;;;;;;;;;;;21.20;1.00;;;;;;4971295;28;19981;-58
2023/10/09 16:29:07;;;;;;;;;;;21.10;1.00;;;;;;4972478;28;19949;-58
2023/10/09 16:31:35;;;;;;;;;;;21.10;1.00;;;;;;4973067;28;20388;-59
2023/10/09 16:34:07;;;;;;;;;;;21.10;1.00;;;;;;5171588;23;19953;-56
2023/10/09 16:36:35;;;;;;;;;;;21.10;1.00;;;;;;4936888;29;19969;-57
2023/10/09 16:39:02;;;;;;;;;;;21.10;1.00;;;;;;4935065;29;20416;-59
2023/10/09 16:41:34;;;;;;;;;;;21.10;1.00;;;;;;4945961;29;19934;-60
2023/10/09 16:44:04;;;;;;;;;;;21.10;1.00;;;;;;4949297;29;19936;-60
2023/10/09 16:46:31;;;;;;;;;;;21.10;1.00;;;;;;4949200;28;19973;-59
2023/10/09 16:49:04;;;;;;;;;;;21.10;1.00;;;;;;4949047;29;19943;-58
2023/10/09 16:51:30;;;;;;;;;;;21.10;1.00;;;;;;4947037;29;19926;-58
2023/10/09 16:53:58;;;;;;;;;;;21.10;1.00;;;;;;4952208;29;20025;-58
2023/10/09 16:56:32;;;;;;;;;;;21.10;1.00;;;;;;4953693;29;20038;-56
2023/10/09 16:59:00;;;;;;;;;;;21.10;1.00;;;;;;4946034;29;20017;-57
2023/10/09 17:01:27;;;;;;;;;;;21.10;1.00;;;;;;4953158;29;20415;-58
2023/10/09 17:06:58;;;;;;;;;;;21.10;1.00;;;;;;4895225;29;20285;-59
2023/10/09 17:09:27;;;;;;;;;;;21.10;1.00;;;;;;4889886;29;19935;-57
2023/10/09 17:11:57;;;;;;;;;;;21.10;1.00;;;;;;4885480;29;20263;-58
2023/10/09 17:14:28;;;;;;;;;;;21.20;1.00;;;;;;4899799;29;19936;-59
2023/10/09 17:16:57;;;;;;;;;;;21.10;1.00;;;;;;4885542;29;19935;-59
2023/10/09 17:19:24;;;;;;;;;;;21.20;1.00;;;;;;4892558;29;20607;-59
2023/10/09 17:21:51;;;;;;;;;;;21.20;1.00;;;;;;4890413;29;20022;-59
2023/10/09 17:24:20;;;;;;;;;;;21.20;1.00;;;;;;4893445;29;19959;-59
2023/10/09 17:26:50;;;;;;;;;;;21.20;1.00;;;;;;4888636;29;19974;-59
2023/10/09 17:29:17;;;;;;;;;;;21.20;1.00;;;;;;4892668;29;19934;-59
2023/10/09 17:31:44;;;;;;;;;;;21.20;1.00;;;;;;4886443;29;19932;-59
2023/10/09 17:34:11;;;;;;;;;;;21.20;1.00;;;;;;4892861;29;19927;-59
2023/10/09 17:36:38;;;;;;;;;;;21.20;1.00;;;;;;4944399;23;20281;-59
2023/10/09 17:39:05;;;;;;;;;;;21.20;1.00;;;;;;4930152;29;19930;-59
2023/10/09 17:41:34;;;;;;;;;;;21.20;1.00;;;;;;4929941;29;20406;-59